sensor_id;sensor_type;location;lat;lon;timestamp;pressure;altitude;pressure_sealevel;temperature;humidity
55171;BME280;41060;47.510;8.680;2022-09-09T00:00:44;96830.50;;;18.21;52.67
55171;BME280;41060;47.510;8.680;2022-09-09T00:03:16;96836.53;;;18.23;52.48
55171;BME280;41060;47.510;8.680;2022-09-09T00:05:53;96825.81;;;18.23;52.95
55171;BME280;41060;47.510;8.680;2022-09-09T00:08:35;96827.50;;;18.24;52.96
55171;BME280;41060;47.510;8.680;2022-09-09T00:11:04;96817.13;;;18.21;53.61
55171;BME280;41060;47.510;8.680;2022-09-09T00:13:34;96816.28;;;18.21;53.31
55171;BME280;41060;47.510;8.680;2022-09-09T00:16:09;96802.88;;;18.21;53.22
55171;BME280;41060;47.510;8.680;2022-09-09T00:18:51;96805.63;;;18.35;53.12
55171;BME280;41060;47.510;8.680;2022-09-09T00:21:20;96810.66;;;18.38;53.15
55171;BME280;41060;47.510;8.680;2022-09-09T00:23:53;96812.16;;;18.33;53.12
55171;BME280;41060;47.510;8.680;2022-09-09T00:26:28;96813.97;;;18.40;52.89
55171;BME280;41060;47.510;8.680;2022-09-09T00:29:04;96807.59;;;18.41;52.99
55171;BME280;41060;47.510;8.680;2022-09-09T00:31:32;96805.16;;;18.32;53.20
55171;BME280;41060;47.510;8.680;2022-09-09T00:34:08;96818.31;;;18.41;52.90
55171;BME280;41060;47.510;8.680;2022-09-09T00:36:41;96819.81;;;18.44;52.98
55171;BME280;41060;47.510;8.680;2022-09-09T00:39:23;96810.44;;;18.40;53.68
55171;BME280;41060;47.510;8.680;2022-09-09T00:42:05;96804.94;;;18.11;54.05
55171;BME280;41060;47.510;8.680;2022-09-09T00:44:38;96811.91;;;17.89;54.43
55171;BME280;41060;47.510;8.680;2022-09-09T00:47:15;96815.81;;;17.86;54.48
55171;BME280;41060;47.510;8.680;2022-09-09T00:49:52;96807.50;;;17.65;55.45
55171;BME280;41060;47.510;8.680;2022-09-09T00:52:29;96804.91;;;17.41;56.20
55171;BME280;41060;47.510;8.680;2022-09-09T00:55:07;96812.06;;;17.48;56.47
55171;BME280;41060;47.510;8.680;2022-09-09T00:57:37;96803.19;;;17.56;56.41
55171;BME280;41060;47.510;8.680;2022-09-09T01:00:20;96807.16;;;17.60;56.36
55171;BME280;41060;47.510;8.680;2022-09-09T01:03:07;96808.56;;;17.48;56.79
55171;BME280;41060;47.510;8.680;2022-09-09T01:05:43;96806.22;;;17.45;56.90
55171;BME280;41060;47.510;8.680;2022-09-09T01:08:24;96805.22;;;17.38;56.86
55171;BME280;41060;47.510;8.680;2022-09-09T01:10:58;96808.13;;;17.20;57.42
55171;BME280;41060;47.510;8.680;2022-09-09T01:13:27;96808.94;;;17.28;57.44
55171;BME280;41060;47.510;8.680;2022-09-09T01:15:57;96806.22;;;17.37;57.20
55171;BME280;41060;47.510;8.680;2022-09-09T01:18:28;96814.50;;;17.19;57.39
55171;BME280;41060;47.510;8.680;2022-09-09T01:21:06;96807.25;;;17.36;57.14
55171;BME280;41060;47.510;8.680;2022-09-09T01:23:44;96815.63;;;17.24;57.41
55171;BME280;41060;47.510;8.680;2022-09-09T01:26:21;96820.44;;;17.37;56.91
55171;BME280;41060;47.510;8.680;2022-09-09T01:28:51;96829.53;;;17.28;57.17
55171;BME280;41060;47.510;8.680;2022-09-09T01:31:22;96824.66;;;17.23;57.29
55171;BME280;41060;47.510;8.680;2022-09-09T01:33:50;96822.16;;;17.14;57.30
55171;BME280;41060;47.510;8.680;2022-09-09T01:36:24;96829.88;;;17.17;57.13
55171;BME280;41060;47.510;8.680;2022-09-09T01:38:53;96818.69;;;17.13;57.20
55171;BME280;41060;47.510;8.680;2022-09-09T01:41:22;96824.69;;;17.07;57.23
55171;BME280;41060;47.510;8.680;2022-09-09T01:43:49;96831.03;;;17.06;57.42
55171;BME280;41060;47.510;8.680;2022-09-09T01:46:20;96819.00;;;17.10;57.17
55171;BME280;41060;47.510;8.680;2022-09-09T01:48:48;96813.81;;;17.17;57.11
55171;BME280;41060;47.510;8.680;2022-09-09T01:51:15;96822.50;;;17.27;56.60
55171;BME280;41060;47.510;8.680;2022-09-09T01:53:42;96817.97;;;17.36;56.15
55171;BME280;41060;47.510;8.680;2022-09-09T01:56:18;96826.63;;;17.46;55.91
55171;BME280;41060;47.510;8.680;2022-09-09T01:59:04;96821.91;;;17.56;55.32
55171;BME280;41060;47.510;8.680;2022-09-09T02:01:42;96830.25;;;17.61;55.15
55171;BME280;41060;47.510;8.680;2022-09-09T02:04:24;96827.03;;;17.65;55.49
55171;BME280;41060;47.510;8.680;2022-09-09T02:06:56;96820.88;;;17.65;54.89
55171;BME280;41060;47.510;8.680;2022-09-09T02:09:24;96837.41;;;17.69;55.30
55171;BME280;41060;47.510;8.680;2022-09-09T02:11:57;96835.91;;;17.66;55.26
55171;BME280;41060;47.510;8.680;2022-09-09T02:14:30;96834.31;;;17.49;55.86
55171;BME280;41060;47.510;8.680;2022-09-09T02:17:01;96850.59;;;17.23;56.55
55171;BME280;41060;47.510;8.680;2022-09-09T02:19:32;96850.44;;;17.16;56.73
55171;BME280;41060;47.510;8.680;2022-09-09T02:22:01;96845.22;;;17.23;56.83
55171;BME280;41060;47.510;8.680;2022-09-09T02:24:34;96847.72;;;17.33;56.62
55171;BME280;41060;47.510;8.680;2022-09-09T02:27:05;96845.22;;;17.39;56.12
55171;BME280;41060;47.510;8.680;2022-09-09T02:29:38;96837.16;;;17.47;56.24
55171;BME280;41060;47.510;8.680;2022-09-09T02:32:10;96842.34;;;17.49;56.69
55171;BME280;41060;47.510;8.680;2022-09-09T02:34:43;96849.69;;;17.55;56.68
55171;BME280;41060;47.510;8.680;2022-09-09T02:37:12;96845.16;;;17.55;56.05
55171;BME280;41060;47.510;8.680;2022-09-09T02:39:41;96854.66;;;17.66;56.00
55171;BME280;41060;47.510;8.680;2022-09-09T02:42:08;96848.66;;;17.64;55.93
55171;BME280;41060;47.510;8.680;2022-09-09T02:44:36;96855.00;;;17.71;55.59
55171;BME280;41060;47.510;8.680;2022-09-09T02:47:15;96860.81;;;17.75;55.37
55171;BME280;41060;47.510;8.680;2022-09-09T02:49:52;96858.81;;;17.77;55.35
55171;BME280;41060;47.510;8.680;2022-09-09T02:52:26;96863.84;;;17.80;55.36
55171;BME280;41060;47.510;8.680;2022-09-09T02:55:01;96863.84;;;17.80;55.46
55171;BME280;41060;47.510;8.680;2022-09-09T02:57:31;96863.34;;;17.84;55.50
55171;BME280;41060;47.510;8.680;2022-09-09T03:00:02;96857.44;;;17.81;56.02
55171;BME280;41060;47.510;8.680;2022-09-09T03:02:29;96861.53;;;17.60;56.39
55171;BME280;41060;47.510;8.680;2022-09-09T03:04:56;96863.53;;;17.66;56.08
55171;BME280;41060;47.510;8.680;2022-09-09T03:07:23;96862.34;;;17.69;56.17
55171;BME280;41060;47.510;8.680;2022-09-09T03:09:50;96865.00;;;17.77;55.60
55171;BME280;41060;47.510;8.680;2022-09-09T03:12:20;96865.00;;;17.85;55.67
55171;BME280;41060;47.510;8.680;2022-09-09T03:14:47;96860.97;;;17.89;55.52
55171;BME280;41060;47.510;8.680;2022-09-09T03:17:15;96858.28;;;17.81;56.13
55171;BME280;41060;47.510;8.680;2022-09-09T03:19:43;96855.78;;;17.88;56.13
55171;BME280;41060;47.510;8.680;2022-09-09T03:22:10;96846.94;;;17.79;55.97
55171;BME280;41060;47.510;8.680;2022-09-09T03:24:38;96861.09;;;17.96;55.55
55171;BME280;41060;47.510;8.680;2022-09-09T03:27:05;96855.91;;;18.02;55.14
55171;BME280;41060;47.510;8.680;2022-09-09T03:29:32;96852.69;;;18.07;55.14
55171;BME280;41060;47.510;8.680;2022-09-09T03:31:59;96854.38;;;18.08;54.86
55171;BME280;41060;47.510;8.680;2022-09-09T03:34:27;96848.34;;;18.06;55.35
55171;BME280;41060;47.510;8.680;2022-09-09T03:36:54;96857.03;;;18.08;55.08
55171;BME280;41060;47.510;8.680;2022-09-09T03:39:21;96856.38;;;18.06;55.00
55171;BME280;41060;47.510;8.680;2022-09-09T03:41:48;96853.88;;;18.04;54.92
55171;BME280;41060;47.510;8.680;2022-09-09T03:44:15;96861.41;;;18.09;54.78
55171;BME280;41060;47.510;8.680;2022-09-09T03:46:42;96864.06;;;18.09;54.87
55171;BME280;41060;47.510;8.680;2022-09-09T03:49:10;96866.22;;;18.14;54.82
55171;BME280;41060;47.510;8.680;2022-09-09T03:51:39;96856.63;;;18.19;57.51
55171;BME280;41060;47.510;8.680;2022-09-09T03:54:06;96847.91;;;18.48;56.96
55171;BME280;41060;47.510;8.680;2022-09-09T03:56:35;96862.63;;;18.83;56.15
55171;BME280;41060;47.510;8.680;2022-09-09T03:59:03;96848.06;;;19.00;55.38
55171;BME280;41060;47.510;8.680;2022-09-09T04:01:30;96854.41;;;19.22;54.27
55171;BME280;41060;47.510;8.680;2022-09-09T04:03:57;96854.53;;;19.43;53.89
55171;BME280;41060;47.510;8.680;2022-09-09T04:06:25;96822.59;;;19.34;53.13
55171;BME280;41060;47.510;8.680;2022-09-09T04:08:53;96864.94;;;19.76;52.94
55171;BME280;41060;47.510;8.680;2022-09-09T04:11:21;96870.06;;;19.85;52.72
55171;BME280;41060;47.510;8.680;2022-09-09T04:13:48;96874.50;;;19.78;52.47
55171;BME280;41060;47.510;8.680;2022-09-09T04:16:15;96877.16;;;19.49;53.39
55171;BME280;41060;47.510;8.680;2022-09-09T04:18:42;96860.56;;;19.08;54.24
55171;BME280;41060;47.510;8.680;2022-09-09T04:21:10;96862.84;;;18.96;55.23
55171;BME280;41060;47.510;8.680;2022-09-09T04:23:38;96858.13;;;19.21;54.79
55171;BME280;41060;47.510;8.680;2022-09-09T04:26:06;96857.03;;;19.45;54.21
55171;BME280;41060;47.510;8.680;2022-09-09T04:28:36;96862.06;;;19.63;53.49
55171;BME280;41060;47.510;8.680;2022-09-09T04:31:06;96858.75;;;19.75;53.01
55171;BME280;41060;47.510;8.680;2022-09-09T04:33:36;96864.84;;;19.84;52.84
55171;BME280;41060;47.510;8.680;2022-09-09T04:36:05;96851.97;;;19.94;52.90
55171;BME280;41060;47.510;8.680;2022-09-09T04:38:31;96852.59;;;19.96;51.86
55171;BME280;41060;47.510;8.680;2022-09-09T04:40:59;96848.25;;;19.66;52.63
55171;BME280;41060;47.510;8.680;2022-09-09T04:43:30;96864.09;;;19.61;53.03
55171;BME280;41060;47.510;8.680;2022-09-09T04:45:57;96869.53;;;19.00;54.39
55171;BME280;41060;47.510;8.680;2022-09-09T04:48:25;96867.28;;;18.89;54.49
55171;BME280;41060;47.510;8.680;2022-09-09T04:50:56;96857.81;;;19.16;54.46
55171;BME280;41060;47.510;8.680;2022-09-09T04:53:24;96858.16;;;19.36;53.99
55171;BME280;41060;47.510;8.680;2022-09-09T04:55:51;96863.75;;;19.49;53.38
55171;BME280;41060;47.510;8.680;2022-09-09T04:58:18;96865.78;;;19.47;53.27
55171;BME280;41060;47.510;8.680;2022-09-09T05:00:48;96857.28;;;19.58;53.11
55171;BME280;41060;47.510;8.680;2022-09-09T05:03:17;96853.09;;;19.55;53.03
55171;BME280;41060;47.510;8.680;2022-09-09T05:05:46;96861.06;;;19.64;52.89
55171;BME280;41060;47.510;8.680;2022-09-09T05:08:13;96854.38;;;19.74;52.86
55171;BME280;41060;47.510;8.680;2022-09-09T05:10:40;96859.03;;;19.80;52.19
55171;BME280;41060;47.510;8.680;2022-09-09T05:13:07;96855.03;;;19.91;52.11
55171;BME280;41060;47.510;8.680;2022-09-09T05:15:34;96859.03;;;19.95;52.16
55171;BME280;41060;47.510;8.680;2022-09-09T05:18:03;96866.78;;;19.90;51.70
55171;BME280;41060;47.510;8.680;2022-09-09T05:20:30;96861.16;;;19.55;52.26
55171;BME280;41060;47.510;8.680;2022-09-09T05:22:57;96866.56;;;18.95;54.03
55171;BME280;41060;47.510;8.680;2022-09-09T05:25:24;96863.38;;;18.92;54.59
55171;BME280;41060;47.510;8.680;2022-09-09T05:27:52;96860.19;;;18.73;55.13
55171;BME280;41060;47.510;8.680;2022-09-09T05:30:20;96870.38;;;18.78;55.11
55171;BME280;41060;47.510;8.680;2022-09-09T05:32:48;96875.84;;;18.85;55.25
55171;BME280;41060;47.510;8.680;2022-09-09T05:35:16;96866.56;;;18.72;55.26
55171;BME280;41060;47.510;8.680;2022-09-09T05:37:44;96853.31;;;18.71;54.98
55171;BME280;41060;47.510;8.680;2022-09-09T05:40:14;96868.13;;;18.67;55.48
55171;BME280;41060;47.510;8.680;2022-09-09T05:42:41;96862.22;;;18.63;55.42
55171;BME280;41060;47.510;8.680;2022-09-09T05:45:13;96875.22;;;18.52;55.71
55171;BME280;41060;47.510;8.680;2022-09-09T05:47:40;96883.25;;;18.52;55.92
55171;BME280;41060;47.510;8.680;2022-09-09T05:50:07;96887.28;;;18.48;56.08
55171;BME280;41060;47.510;8.680;2022-09-09T05:52:36;96888.94;;;18.26;56.89
55171;BME280;41060;47.510;8.680;2022-09-09T05:55:03;96888.81;;;18.50;56.58
55171;BME280;41060;47.510;8.680;2022-09-09T05:57:30;96889.13;;;18.78;55.67
55171;BME280;41060;47.510;8.680;2022-09-09T05:59:58;96888.19;;;18.94;55.50
55171;BME280;41060;47.510;8.680;2022-09-09T06:02:24;96887.41;;;19.08;54.89
55171;BME280;41060;47.510;8.680;2022-09-09T06:04:51;96885.16;;;18.97;55.13
55171;BME280;41060;47.510;8.680;2022-09-09T06:07:18;96857.56;;;18.88;55.08
55171;BME280;41060;47.510;8.680;2022-09-09T06:09:46;96880.25;;;19.00;55.12
55171;BME280;41060;47.510;8.680;2022-09-09T06:12:13;96883.78;;;19.01;55.10
55171;BME280;41060;47.510;8.680;2022-09-09T06:14:40;96883.66;;;18.94;55.24
55171;BME280;41060;47.510;8.680;2022-09-09T06:17:07;96888.50;;;18.99;55.30
55171;BME280;41060;47.510;8.680;2022-09-09T06:19:34;96885.34;;;18.95;55.44
55171;BME280;41060;47.510;8.680;2022-09-09T06:22:01;96883.38;;;18.89;55.35
55171;BME280;41060;47.510;8.680;2022-09-09T06:24:28;96880.31;;;18.92;55.35
55171;BME280;41060;47.510;8.680;2022-09-09T06:26:56;96873.44;;;18.75;55.77
55171;BME280;41060;47.510;8.680;2022-09-09T06:29:24;96880.25;;;19.00;55.41
55171;BME280;41060;47.510;8.680;2022-09-09T06:31:50;96881.63;;;19.19;54.85
55171;BME280;41060;47.510;8.680;2022-09-09T06:34:17;96872.38;;;19.36;54.42
55171;BME280;41060;47.510;8.680;2022-09-09T06:36:44;96878.72;;;19.43;54.26
55171;BME280;41060;47.510;8.680;2022-09-09T06:39:11;96880.03;;;19.47;54.27
55171;BME280;41060;47.510;8.680;2022-09-09T06:41:39;96873.84;;;19.62;53.66
55171;BME280;41060;47.510;8.680;2022-09-09T06:44:08;96874.03;;;19.75;53.32
55171;BME280;41060;47.510;8.680;2022-09-09T06:46:37;96881.63;;;19.86;53.04
55171;BME280;41060;47.510;8.680;2022-09-09T06:49:04;96881.16;;;19.97;52.71
55171;BME280;41060;47.510;8.680;2022-09-09T06:51:34;96887.53;;;20.11;52.54
55171;BME280;41060;47.510;8.680;2022-09-09T06:54:02;96885.06;;;20.24;51.81
55171;BME280;41060;47.510;8.680;2022-09-09T06:56:31;96875.47;;;20.36;51.94
55171;BME280;41060;47.510;8.680;2022-09-09T06:59:00;96880.09;;;20.42;51.87
55171;BME280;41060;47.510;8.680;2022-09-09T07:01:30;96883.69;;;20.49;51.55
55171;BME280;41060;47.510;8.680;2022-09-09T07:03:58;96878.84;;;20.23;52.65
55171;BME280;41060;47.510;8.680;2022-09-09T07:06:26;96882.88;;;20.34;52.27
55171;BME280;41060;47.510;8.680;2022-09-09T07:08:55;96876.19;;;20.45;51.89
55171;BME280;41060;47.510;8.680;2022-09-09T07:11:25;96885.19;;;20.52;51.96
55171;BME280;41060;47.510;8.680;2022-09-09T07:13:53;96888.63;;;20.46;52.32
55171;BME280;41060;47.510;8.680;2022-09-09T07:16:22;96884.22;;;20.23;51.90
55171;BME280;41060;47.510;8.680;2022-09-09T07:18:51;96888.94;;;20.07;52.63
55171;BME280;41060;47.510;8.680;2022-09-09T07:21:21;96884.84;;;19.96;53.44
55171;BME280;41060;47.510;8.680;2022-09-09T07:23:48;96883.28;;;20.02;53.30
55171;BME280;41060;47.510;8.680;2022-09-09T07:26:17;96875.16;;;20.24;52.53
55171;BME280;41060;47.510;8.680;2022-09-09T07:28:45;96883.38;;;20.38;51.96
55171;BME280;41060;47.510;8.680;2022-09-09T07:31:13;96879.97;;;20.50;51.80
55171;BME280;41060;47.510;8.680;2022-09-09T07:33:42;96881.13;;;20.62;51.31
55171;BME280;41060;47.510;8.680;2022-09-09T07:36:14;96886.41;;;20.34;51.63
55171;BME280;41060;47.510;8.680;2022-09-09T07:38:43;96890.69;;;20.14;52.50
55171;BME280;41060;47.510;8.680;2022-09-09T07:41:17;96891.91;;;20.26;52.29
55171;BME280;41060;47.510;8.680;2022-09-09T07:43:45;96893.09;;;20.39;51.18
55171;BME280;41060;47.510;8.680;2022-09-09T07:46:14;96897.44;;;20.54;51.47
55171;BME280;41060;47.510;8.680;2022-09-09T07:48:43;96899.41;;;20.67;51.12
55171;BME280;41060;47.510;8.680;2022-09-09T07:51:12;96899.31;;;20.75;50.77
55171;BME280;41060;47.510;8.680;2022-09-09T07:53:44;96903.34;;;20.50;50.65
55171;BME280;41060;47.510;8.680;2022-09-09T07:56:14;96896.16;;;20.36;51.09
55171;BME280;41060;47.510;8.680;2022-09-09T07:58:45;96889.69;;;20.30;51.54
55171;BME280;41060;47.510;8.680;2022-09-09T08:01:14;96904.56;;;20.47;51.35
55171;BME280;41060;47.510;8.680;2022-09-09T08:03:42;96909.75;;;20.19;52.20
55171;BME280;41060;47.510;8.680;2022-09-09T08:06:10;96904.41;;;20.05;52.53
55171;BME280;41060;47.510;8.680;2022-09-09T08:08:38;96903.03;;;19.94;53.13
55171;BME280;41060;47.510;8.680;2022-09-09T08:11:10;96902.56;;;19.76;52.55
55171;BME280;41060;47.510;8.680;2022-09-09T08:13:38;96901.44;;;20.00;52.83
55171;BME280;41060;47.510;8.680;2022-09-09T08:16:07;96913.09;;;20.21;53.02
55171;BME280;41060;47.510;8.680;2022-09-09T08:18:35;96903.78;;;20.03;51.32
55171;BME280;41060;47.510;8.680;2022-09-09T08:21:08;96911.94;;;19.94;51.17
55171;BME280;41060;47.510;8.680;2022-09-09T08:23:38;96914.22;;;19.83;53.15
55171;BME280;41060;47.510;8.680;2022-09-09T08:26:06;96899.94;;;19.68;51.74
55171;BME280;41060;47.510;8.680;2022-09-09T08:28:36;96912.91;;;19.49;53.16
55171;BME280;41060;47.510;8.680;2022-09-09T08:31:12;96905.06;;;19.40;53.02
55171;BME280;41060;47.510;8.680;2022-09-09T08:33:40;96893.75;;;19.30;52.78
55171;BME280;41060;47.510;8.680;2022-09-09T08:36:10;96909.78;;;19.75;53.04
55171;BME280;41060;47.510;8.680;2022-09-09T08:38:38;96907.19;;;19.82;50.84
55171;BME280;41060;47.510;8.680;2022-09-09T08:41:29;96912.03;;;19.86;50.84
55171;BME280;41060;47.510;8.680;2022-09-09T08:44:03;96916.25;;;19.81;49.65
55171;BME280;41060;47.510;8.680;2022-09-09T08:46:38;96909.25;;;20.09;50.44
55171;BME280;41060;47.510;8.680;2022-09-09T08:49:19;96911.72;;;20.40;50.04
55171;BME280;41060;47.510;8.680;2022-09-09T08:51:53;96923.88;;;20.21;49.00
55171;BME280;41060;47.510;8.680;2022-09-09T08:54:23;96919.59;;;20.12;49.46
55171;BME280;41060;47.510;8.680;2022-09-09T08:56:51;96920.44;;;20.13;49.98
55171;BME280;41060;47.510;8.680;2022-09-09T08:59:19;96918.25;;;20.31;49.35
55171;BME280;41060;47.510;8.680;2022-09-09T09:02:02;96908.44;;;20.59;49.08
55171;BME280;41060;47.510;8.680;2022-09-09T09:04:38;96915.59;;;20.52;48.83
55171;BME280;41060;47.510;8.680;2022-09-09T09:07:18;96913.28;;;20.49;49.50
55171;BME280;41060;47.510;8.680;2022-09-09T09:09:57;96919.63;;;20.27;47.80
55171;BME280;41060;47.510;8.680;2022-09-09T09:12:29;96915.63;;;20.38;48.31
55171;BME280;41060;47.510;8.680;2022-09-09T09:14:59;96922.31;;;20.27;48.57
55171;BME280;41060;47.510;8.680;2022-09-09T09:17:28;96915.25;;;20.11;47.00
55171;BME280;41060;47.510;8.680;2022-09-09T09:19:58;96902.28;;;20.29;47.14
55171;BME280;41060;47.510;8.680;2022-09-09T09:22:30;96923.78;;;19.85;47.73
55171;BME280;41060;47.510;8.680;2022-09-09T09:25:05;96918.41;;;20.15;47.74
55171;BME280;41060;47.510;8.680;2022-09-09T09:27:43;96909.03;;;20.25;47.20
55171;BME280;41060;47.510;8.680;2022-09-09T09:30:15;96918.50;;;19.92;47.89
55171;BME280;41060;47.510;8.680;2022-09-09T09:32:51;96907.19;;;20.11;47.43
55171;BME280;41060;47.510;8.680;2022-09-09T09:35:19;96913.19;;;20.43;46.88
55171;BME280;41060;47.510;8.680;2022-09-09T09:37:49;96917.72;;;20.57;47.24
55171;BME280;41060;47.510;8.680;2022-09-09T09:40:18;96917.72;;;20.78;47.86
55171;BME280;41060;47.510;8.680;2022-09-09T09:42:49;96921.72;;;20.82;47.27
55171;BME280;41060;47.510;8.680;2022-09-09T09:45:27;96906.34;;;20.97;46.63
55171;BME280;41060;47.510;8.680;2022-09-09T09:47:59;96902.84;;;20.97;46.45
55171;BME280;41060;47.510;8.680;2022-09-09T09:50:28;96924.53;;;20.95;45.60
55171;BME280;41060;47.510;8.680;2022-09-09T09:52:56;96913.16;;;20.57;45.21
55171;BME280;41060;47.510;8.680;2022-09-09T09:55:23;96921.19;;;20.72;45.55
55171;BME280;41060;47.510;8.680;2022-09-09T09:57:51;96911.38;;;20.64;45.86
55171;BME280;41060;47.510;8.680;2022-09-09T10:00:21;96914.41;;;20.40;45.62
55171;BME280;41060;47.510;8.680;2022-09-09T10:02:49;96919.44;;;20.64;46.36
55171;BME280;41060;47.510;8.680;2022-09-09T10:05:20;96919.53;;;20.92;45.33
55171;BME280;41060;47.510;8.680;2022-09-09T10:08:00;96922.41;;;21.05;44.88
55171;BME280;41060;47.510;8.680;2022-09-09T10:10:36;96923.94;;;20.79;46.26
55171;BME280;41060;47.510;8.680;2022-09-09T10:13:11;96930.28;;;20.71;44.19
55171;BME280;41060;47.510;8.680;2022-09-09T10:15:51;96930.75;;;20.39;44.26
55171;BME280;41060;47.510;8.680;2022-09-09T10:18:35;96939.91;;;20.15;45.34
55171;BME280;41060;47.510;8.680;2022-09-09T10:21:13;96952.88;;;19.96;48.98
55171;BME280;41060;47.510;8.680;2022-09-09T10:24:08;96951.47;;;19.71;48.66
55171;BME280;41060;47.510;8.680;2022-09-09T10:26:44;96948.94;;;19.55;49.84
55171;BME280;41060;47.510;8.680;2022-09-09T10:29:40;96954.38;;;19.24;50.81
55171;BME280;41060;47.510;8.680;2022-09-09T10:32:33;96955.03;;;19.03;51.98
55171;BME280;41060;47.510;8.680;2022-09-09T10:35:08;96949.59;;;18.89;54.22
55171;BME280;41060;47.510;8.680;2022-09-09T10:37:44;96937.16;;;18.96;54.52
55171;BME280;41060;47.510;8.680;2022-09-09T10:40:22;96951.03;;;18.76;54.39
55171;BME280;41060;47.510;8.680;2022-09-09T10:42:53;96949.84;;;19.02;54.69
55171;BME280;41060;47.510;8.680;2022-09-09T10:45:29;96942.91;;;19.30;54.24
55171;BME280;41060;47.510;8.680;2022-09-09T10:48:14;96942.47;;;19.41;53.53
55171;BME280;41060;47.510;8.680;2022-09-09T10:50:50;96948.09;;;19.54;53.71
55171;BME280;41060;47.510;8.680;2022-09-09T10:53:28;96900.25;;;19.73;52.47
55171;BME280;41060;47.510;8.680;2022-09-09T10:56:03;96941.03;;;20.35;50.64
55171;BME280;41060;47.510;8.680;2022-09-09T10:58:34;96938.09;;;20.66;48.57
55171;BME280;41060;47.510;8.680;2022-09-09T11:01:10;96940.31;;;21.13;49.10
55171;BME280;41060;47.510;8.680;2022-09-09T11:03:42;96924.56;;;21.38;49.28
55171;BME280;41060;47.510;8.680;2022-09-09T11:06:13;96930.28;;;21.77;47.74
55171;BME280;41060;47.510;8.680;2022-09-09T11:08:42;96929.94;;;21.66;47.02
55171;BME280;41060;47.510;8.680;2022-09-09T11:11:12;96933.69;;;21.86;49.03
55171;BME280;41060;47.510;8.680;2022-09-09T11:13:46;96928.91;;;21.88;49.87
55171;BME280;41060;47.510;8.680;2022-09-09T11:16:22;96921.59;;;22.10;48.66
55171;BME280;41060;47.510;8.680;2022-09-09T11:18:56;96914.13;;;22.46;48.17
55171;BME280;41060;47.510;8.680;2022-09-09T11:21:26;96911.44;;;22.53;43.91
55171;BME280;41060;47.510;8.680;2022-09-09T11:23:58;96911.53;;;22.86;45.06
55171;BME280;41060;47.510;8.680;2022-09-09T11:26:31;96890.56;;;22.94;45.87
55171;BME280;41060;47.510;8.680;2022-09-09T11:29:11;96902.91;;;23.17;45.60
55171;BME280;41060;47.510;8.680;2022-09-09T11:31:45;96902.38;;;22.74;45.54
55171;BME280;41060;47.510;8.680;2022-09-09T11:34:26;96895.63;;;22.43;45.41
55171;BME280;41060;47.510;8.680;2022-09-09T11:37:12;96888.38;;;22.44;44.77
55171;BME280;41060;47.510;8.680;2022-09-09T11:40:02;96884.34;;;22.33;44.91
55171;BME280;41060;47.510;8.680;2022-09-09T11:42:35;96883.13;;;22.36;43.00
55171;BME280;41060;47.510;8.680;2022-09-09T11:45:19;96882.38;;;22.55;43.76
55171;BME280;41060;47.510;8.680;2022-09-09T11:47:54;96877.97;;;22.41;45.29
55171;BME280;41060;47.510;8.680;2022-09-09T11:50:32;96872.47;;;22.69;45.37
55171;BME280;41060;47.510;8.680;2022-09-09T11:53:18;96869.63;;;22.96;41.79
55171;BME280;41060;47.510;8.680;2022-09-09T11:56:25;96871.28;;;23.04;40.50
55171;BME280;41060;47.510;8.680;2022-09-09T11:58:58;96861.50;;;22.96;41.30
55171;BME280;41060;47.510;8.680;2022-09-09T12:01:29;96867.59;;;23.25;41.13
55171;BME280;41060;47.510;8.680;2022-09-09T12:04:09;96866.31;;;23.54;40.78
55171;BME280;41060;47.510;8.680;2022-09-09T12:06:44;96859.47;;;23.38;40.67
55171;BME280;41060;47.510;8.680;2022-09-09T12:09:20;96870.47;;;23.36;40.62
55171;BME280;41060;47.510;8.680;2022-09-09T12:11:50;96865.47;;;23.73;41.49
55171;BME280;41060;47.510;8.680;2022-09-09T12:14:22;96860.06;;;23.86;38.90
55171;BME280;41060;47.510;8.680;2022-09-09T12:16:49;96856.69;;;23.97;39.21
55171;BME280;41060;47.510;8.680;2022-09-09T12:19:19;96860.13;;;24.31;39.03
55171;BME280;41060;47.510;8.680;2022-09-09T12:21:55;96859.34;;;24.68;39.23
55171;BME280;41060;47.510;8.680;2022-09-09T12:24:30;96849.59;;;24.99;39.13
55171;BME280;41060;47.510;8.680;2022-09-09T12:27:06;96844.47;;;24.84;39.48
55171;BME280;41060;47.510;8.680;2022-09-09T12:29:41;96843.66;;;24.83;37.26
55171;BME280;41060;47.510;8.680;2022-09-09T12:32:15;96842.88;;;25.33;37.60
55171;BME280;41060;47.510;8.680;2022-09-09T12:34:46;96844.84;;;25.68;35.23
55171;BME280;41060;47.510;8.680;2022-09-09T12:37:26;96842.16;;;25.19;34.85
55171;BME280;41060;47.510;8.680;2022-09-09T12:39:56;96824.22;;;24.86;34.88
55171;BME280;41060;47.510;8.680;2022-09-09T12:42:24;96831.50;;;24.61;35.91
55171;BME280;41060;47.510;8.680;2022-09-09T12:44:52;96831.03;;;24.96;36.25
55171;BME280;41060;47.510;8.680;2022-09-09T12:47:22;96828.13;;;24.97;34.67
55171;BME280;41060;47.510;8.680;2022-09-09T12:49:50;96823.81;;;25.21;33.99
55171;BME280;41060;47.510;8.680;2022-09-09T12:52:24;96819.97;;;24.72;35.33
55171;BME280;41060;47.510;8.680;2022-09-09T12:54:56;96819.66;;;25.18;35.70
55171;BME280;41060;47.510;8.680;2022-09-09T12:57:24;96819.44;;;24.88;35.30
55171;BME280;41060;47.510;8.680;2022-09-09T12:59:52;96815.53;;;24.78;34.12
55171;BME280;41060;47.510;8.680;2022-09-09T13:02:31;96811.25;;;24.95;34.00
55171;BME280;41060;47.510;8.680;2022-09-09T13:05:06;96814.72;;;24.77;34.82
55171;BME280;41060;47.510;8.680;2022-09-09T13:07:40;96809.34;;;24.71;34.45
55171;BME280;41060;47.510;8.680;2022-09-09T13:10:11;96808.59;;;24.57;33.43
55171;BME280;41060;47.510;8.680;2022-09-09T13:12:41;96794.28;;;24.50;33.49
55171;BME280;41060;47.510;8.680;2022-09-09T13:15:16;96806.34;;;24.47;34.05
55171;BME280;41060;47.510;8.680;2022-09-09T13:17:50;96794.19;;;24.63;32.76
55171;BME280;41060;47.510;8.680;2022-09-09T13:20:22;96797.06;;;25.06;32.58
55171;BME280;41060;47.510;8.680;2022-09-09T13:22:52;96796.19;;;25.30;31.62